Time;durP1;ratioP1;P1;durP2;ratioP2;P2;SDS_P1;SDS_P2;PMS_P1;PMS_P2;Temp;Humidity;BMP_temperature;BMP_pressure;BME280_temperature;BME280_humidity;BME280_pressure;Samples;Min_cycle;Max_cycle;Signal;HPM_P1;HPM_P2
2022/06/10 00:01:43;;;;;;;5.50;3.50;;;22.70;60.30;;;;;;5013361;28;20025;-70
2022/06/10 00:04:08;;;;;;;6.22;3.40;;;22.70;60.20;;;;;;5011977;28;20085;-71
2022/06/10 00:06:34;;;;;;;8.90;3.95;;;22.70;60.30;;;;;;5013341;28;20034;-71
2022/06/10 00:09:01;;;;;;;6.07;3.67;;;22.70;60.30;;;;;;4995732;28;20394;-71
2022/06/10 00:11:27;;;;;;;6.63;3.45;;;22.70;60.30;;;;;;5013474;28;20056;-71
2022/06/10 00:13:53;;;;;;;5.53;3.60;;;22.70;60.30;;;;;;5013130;28;20038;-71
2022/06/10 00:16:19;;;;;;;5.70;3.55;;;22.70;60.20;;;;;;5013259;28;20061;-71
2022/06/10 00:18:46;;;;;;;7.40;3.80;;;22.70;60.30;;;;;;4995310;28;20041;-71
2022/06/10 00:21:14;;;;;;;5.93;3.50;;;22.70;60.30;;;;;;5011805;28;20021;-71
2022/06/10 00:23:40;;;;;;;5.82;3.40;;;22.70;60.80;;;;;;5011885;28;20033;-71
2022/06/10 00:26:06;;;;;;;4.85;3.30;;;22.70;60.30;;;;;;5013171;28;20022;-71
2022/06/10 00:28:33;;;;;;;5.50;3.38;;;22.70;60.30;;;;;;5012512;28;20030;-71
2022/06/10 00:30:59;;;;;;;5.53;3.40;;;22.70;60.20;;;;;;5013013;28;20026;-71
2022/06/10 00:33:25;;;;;;;6.38;3.83;;;22.70;60.20;;;;;;5010339;28;20065;-71
2022/06/10 00:35:51;;;;;;;5.72;3.33;;;22.70;60.90;;;;;;5012805;28;20440;-69
2022/06/10 00:38:18;;;;;;;5.68;3.50;;;22.70;60.20;;;;;;4994668;28;20048;-69
2022/06/10 00:40:49;;;;;;;5.05;3.33;;;22.70;60.20;;;;;;5011665;28;20034;-69
2022/06/10 00:43:18;;;;;;;5.13;3.25;;;22.70;60.10;;;;;;5012562;28;20041;-69
2022/06/10 00:46:11;;;;;;;4.68;3.00;;;22.70;60.10;;;;;;5011305;28;20018;-68
2022/06/10 00:48:48;;;;;;;5.43;3.13;;;22.70;60.00;;;;;;4983753;28;20049;-69
2022/06/10 00:51:38;;;;;;;5.53;3.10;;;22.70;60.20;;;;;;5012489;28;20522;-71
2022/06/10 00:54:25;;;;;;;5.32;3.40;;;22.70;60.10;;;;;;5025883;23;20109;-76
2022/06/10 00:56:53;;;;;;;6.10;3.60;;;22.70;60.10;;;;;;4980317;28;20466;-76
2022/06/10 00:59:24;;;;;;;4.38;2.90;;;22.70;60.20;;;;;;4991396;28;20022;-76
2022/06/10 01:02:06;;;;;;;5.40;3.45;;;22.70;60.20;;;;;;4992713;28;20022;-76
2022/06/10 01:04:31;;;;;;;5.25;3.15;;;22.70;60.10;;;;;;4998266;28;20105;-76
2022/06/10 01:06:58;;;;;;;5.32;3.58;;;22.70;60.20;;;;;;5011959;28;20121;-76
2022/06/10 01:09:26;;;;;;;4.72;3.45;;;22.70;60.20;;;;;;5011895;28;20491;-76
2022/06/10 01:12:21;;;;;;;4.72;3.20;;;22.70;60.20;;;;;;5027564;28;20030;-75
2022/06/10 01:15:11;;;;;;;5.88;3.55;;;22.70;60.20;;;;;;5012030;28;20156;-75
2022/06/10 01:17:57;;;;;;;6.40;3.50;;;22.70;60.20;;;;;;5011557;28;20045;-76
2022/06/10 01:20:31;;;;;;;5.00;3.40;;;22.70;60.10;;;;;;5011603;28;20034;-76
2022/06/10 01:23:35;;;;;;;5.65;3.45;;;22.70;60.20;;;;;;5010888;28;20022;-76
2022/06/10 01:30:07;;;;;;;5.18;3.00;;;22.70;60.20;;;;;;4989878;28;20038;-76
2022/06/10 01:32:42;;;;;;;4.95;3.15;;;22.60;60.10;;;;;;5011897;28;20140;-76
2022/06/10 01:35:07;;;;;;;5.43;3.10;;;22.70;60.10;;;;;;5011663;28;20110;-76
2022/06/10 01:37:49;;;;;;;5.68;3.20;;;22.60;60.10;;;;;;5010918;28;20557;-76
2022/06/10 01:40:26;;;;;;;4.63;2.88;;;22.70;60.10;;;;;;5011680;28;20114;-76
2022/06/10 01:43:23;;;;;;;4.95;2.83;;;22.70;60.00;;;;;;5011535;28;20026;-76
2022/06/10 01:45:55;;;;;;;4.43;3.15;;;22.60;60.00;;;;;;5007407;28;20038;-76
2022/06/10 01:48:34;;;;;;;4.97;2.72;;;22.70;60.00;;;;;;5010195;28;20041;-76
2022/06/10 01:51:11;;;;;;;5.57;3.08;;;22.70;60.10;;;;;;5011663;28;20030;-76
2022/06/10 01:53:44;;;;;;;4.03;2.92;;;22.70;60.00;;;;;;5011614;28;20475;-76
2022/06/10 01:56:21;;;;;;;4.20;2.70;;;22.70;60.10;;;;;;5011470;28;20120;-76
2022/06/10 01:59:12;;;;;;;4.18;2.75;;;22.70;60.10;;;;;;5011038;28;20068;-76
2022/06/10 02:01:41;;;;;;;5.03;3.05;;;22.70;60.10;;;;;;5011214;28;20584;-76
2022/06/10 02:04:27;;;;;;;3.53;2.60;;;22.70;60.10;;;;;;5011399;28;20063;-76
2022/06/10 02:07:01;;;;;;;4.80;3.00;;;22.70;60.10;;;;;;5011139;28;20029;-76
2022/06/10 02:09:42;;;;;;;4.47;2.70;;;22.70;60.10;;;;;;5010260;28;20482;-76
2022/06/10 02:12:24;;;;;;;3.75;2.65;;;22.60;60.10;;;;;;5011282;28;20041;-76
2022/06/10 02:15:05;;;;;;;5.00;2.97;;;22.70;60.10;;;;;;5011675;28;20034;-76
2022/06/10 02:17:48;;;;;;;4.30;2.75;;;22.70;60.10;;;;;;5010855;28;20108;-76
2022/06/10 02:20:22;;;;;;;5.05;3.10;;;22.60;60.00;;;;;;5011722;28;20414;-76
2022/06/10 02:22:48;;;;;;;4.95;3.10;;;22.60;60.10;;;;;;5010085;28;20022;-76
2022/06/10 02:25:21;;;;;;;4.60;2.67;;;22.60;60.10;;;;;;5011260;28;20112;-76
2022/06/10 02:27:52;;;;;;;5.03;2.78;;;22.70;60.20;;;;;;5010669;28;20469;-76
2022/06/10 02:30:23;;;;;;;3.85;2.72;;;22.60;60.00;;;;;;5011273;28;20053;-76
2022/06/10 02:32:49;;;;;;;5.13;3.10;;;22.60;60.00;;;;;;5009900;28;20481;-76
2022/06/10 02:35:16;;;;;;;3.78;2.67;;;22.70;60.10;;;;;;5010186;28;20034;-76
2022/06/10 02:37:57;;;;;;;4.43;2.97;;;22.60;60.10;;;;;;5009214;28;20030;-76
2022/06/10 02:40:31;;;;;;;4.22;2.83;;;22.60;60.00;;;;;;5010098;28;20112;-76
2022/06/10 02:43:38;;;;;;;4.30;2.60;;;22.70;60.10;;;;;;5009742;28;20411;-76
2022/06/10 02:46:20;;;;;;;4.18;2.97;;;22.70;60.00;;;;;;5006062;28;20042;-76
2022/06/10 02:49:10;;;;;;;4.88;2.85;;;22.70;60.00;;;;;;5010739;28;20391;-76
2022/06/10 02:51:37;;;;;;;3.92;2.92;;;22.70;60.00;;;;;;5010927;28;20454;-76
2022/06/10 02:54:07;;;;;;;3.95;2.47;;;22.70;60.00;;;;;;5009695;28;20113;-76
2022/06/10 02:56:33;;;;;;;5.03;2.90;;;22.70;60.00;;;;;;5012751;28;20036;-76
2022/06/10 03:02:04;;;;;;;4.87;2.97;;;22.60;59.90;;;;;;5014438;28;20081;-76
2022/06/10 03:05:06;;;;;;;4.55;2.72;;;22.60;60.00;;;;;;5014276;28;20279;-76
2022/06/10 03:07:48;;;;;;;3.60;2.50;;;22.60;60.00;;;;;;5014046;28;20131;-76
2022/06/10 03:10:53;;;;;;;3.88;2.78;;;22.60;59.90;;;;;;5014800;28;20367;-76
2022/06/10 03:13:51;;;;;;;4.10;2.60;;;22.60;59.90;;;;;;5014171;28;20038;-76
2022/06/10 03:16:53;;;;;;;4.30;2.63;;;22.60;60.00;;;;;;5013031;28;20088;-77
2022/06/10 03:19:20;;;;;;;3.83;2.85;;;22.60;60.00;;;;;;5013976;28;20088;-76
2022/06/10 03:22:00;;;;;;;4.43;2.80;;;22.60;60.00;;;;;;5014034;28;20030;-77
2022/06/10 03:24:54;;;;;;;5.03;3.00;;;22.60;60.00;;;;;;5014151;28;20034;-77
2022/06/10 03:27:38;;;;;;;5.07;2.80;;;22.60;60.00;;;;;;5013606;28;20490;-77
2022/06/10 03:30:17;;;;;;;4.50;2.50;;;22.60;59.90;;;;;;5014165;28;20026;-77
2022/06/10 03:33:05;;;;;;;4.63;2.67;;;22.60;59.90;;;;;;5013938;28;20034;-77
2022/06/10 03:36:15;;;;;;;5.55;3.17;;;22.60;60.50;;;;;;5012892;28;20038;-77
2022/06/10 03:38:44;;;;;;;4.38;2.85;;;22.60;60.00;;;;;;5009362;28;20092;-77
2022/06/10 03:41:39;;;;;;;4.57;2.60;;;22.60;59.90;;;;;;4996876;28;20030;-77
2022/06/10 03:44:17;;;;;;;4.45;3.00;;;22.60;59.90;;;;;;5013142;28;20072;-76
2022/06/10 03:46:49;;;;;;;4.90;3.00;;;22.60;59.90;;;;;;5012466;28;20501;-77
2022/06/10 03:49:19;;;;;;;4.10;2.70;;;22.60;59.90;;;;;;5013690;28;20159;-77
2022/06/10 03:51:45;;;;;;;4.53;2.92;;;22.60;59.80;;;;;;5012260;28;20519;-77
2022/06/10 03:54:17;;;;;;;4.00;2.70;;;22.60;59.90;;;;;;5013745;28;20563;-76
2022/06/10 03:56:42;;;;;;;3.92;2.63;;;22.60;59.80;;;;;;5012365;28;20040;-77
2022/06/10 03:59:09;;;;;;;4.63;2.78;;;22.60;59.80;;;;;;5013464;28;20394;-77
2022/06/10 04:01:34;;;;;;;3.95;2.42;;;22.60;59.80;;;;;;5012230;28;20033;-77
2022/06/10 04:04:00;;;;;;;4.47;2.70;;;22.60;59.80;;;;;;5013383;28;20022;-77
2022/06/10 04:06:26;;;;;;;4.15;2.70;;;22.60;60.50;;;;;;5013285;28;20022;-77
2022/06/10 04:08:52;;;;;;;4.45;2.58;;;22.60;59.80;;;;;;5012935;28;20099;-77
2022/06/10 04:11:18;;;;;;;5.05;2.50;;;22.60;59.80;;;;;;5013548;28;20053;-78
2022/06/10 04:13:44;;;;;;;4.90;2.78;;;22.60;59.80;;;;;;5013327;28;20517;-77
2022/06/10 04:16:11;;;;;;;4.43;2.90;;;22.60;59.80;;;;;;5013243;28;20022;-77
2022/06/10 04:18:38;;;;;;;5.10;3.05;;;22.60;59.80;;;;;;5012769;28;20474;-77
2022/06/10 04:21:05;;;;;;;4.20;2.47;;;22.60;59.90;;;;;;5013135;28;20030;-77
2022/06/10 04:23:32;;;;;;;3.72;2.50;;;22.60;59.90;;;;;;5013130;28;20486;-77
2022/06/10 04:25:58;;;;;;;3.97;2.63;;;22.60;59.90;;;;;;5028459;28;20025;-78
2022/06/10 04:28:24;;;;;;;4.97;2.90;;;22.60;59.80;;;;;;4995214;28;20040;-77
2022/06/10 04:30:51;;;;;;;4.13;2.60;;;22.60;59.80;;;;;;5012873;28;20080;-77
2022/06/10 04:33:19;;;;;;;4.15;2.85;;;22.60;59.80;;;;;;5011592;28;20474;-77
2022/06/10 04:35:47;;;;;;;3.47;2.38;;;22.60;59.80;;;;;;5012898;28;20033;-77
2022/06/10 04:38:16;;;;;;;3.70;2.70;;;22.60;59.80;;;;;;5012344;28;20037;-76
2022/06/10 04:40:42;;;;;;;4.55;2.60;;;22.60;60.30;;;;;;5012823;28;20026;-76
2022/06/10 04:43:08;;;;;;;4.50;2.70;;;22.60;59.80;;;;;;5011193;28;20026;-77
2022/06/10 04:45:41;;;;;;;4.28;2.72;;;22.60;59.80;;;;;;5012854;28;20030;-77
2022/06/10 04:48:07;;;;;;;4.07;2.78;;;22.60;59.80;;;;;;5011810;28;20075;-77
2022/06/10 04:50:33;;;;;;;4.68;2.67;;;22.60;59.80;;;;;;5012790;28;20030;-77
2022/06/10 04:52:59;;;;;;;3.90;2.75;;;22.60;59.80;;;;;;5012557;28;20073;-77
2022/06/10 04:55:27;;;;;;;4.53;2.90;;;22.60;59.70;;;;;;5012404;28;20038;-76
2022/06/10 04:57:54;;;;;;;4.63;2.50;;;22.60;59.70;;;;;;5010751;28;20034;-77
2022/06/10 05:00:38;;;;;;;3.92;2.50;;;22.60;59.70;;;;;;5011641;28;20379;-77
2022/06/10 05:03:04;;;;;;;4.93;2.90;;;22.60;59.70;;;;;;5012605;28;20028;-77
2022/06/10 05:05:30;;;;;;;4.15;2.70;;;22.60;59.70;;;;;;5011535;28;20059;-77
2022/06/10 05:07:56;;;;;;;4.28;2.70;;;22.60;59.70;;;;;;5010505;28;20501;-77
2022/06/10 05:10:23;;;;;;;4.00;2.80;;;22.60;60.20;;;;;;4995326;28;20042;-77
2022/06/10 05:12:50;;;;;;;4.05;2.60;;;22.60;59.70;;;;;;5012282;28;20037;-77
2022/06/10 05:15:20;;;;;;;4.22;2.60;;;22.60;59.70;;;;;;5012236;28;20026;-77
2022/06/10 05:17:47;;;;;;;4.72;2.70;;;22.60;59.70;;;;;;5010279;28;20103;-77
2022/06/10 05:20:21;;;;;;;4.30;2.50;;;22.60;59.70;;;;;;5011859;28;20061;-77
2022/06/10 05:22:47;;;;;;;4.70;2.60;;;22.60;59.70;;;;;;5010769;28;20030;-77
2022/06/10 05:25:13;;;;;;;4.15;2.25;;;22.60;60.20;;;;;;5012025;28;20037;-77
2022/06/10 05:27:40;;;;;;;3.85;2.45;;;22.60;59.60;;;;;;5011467;28;20038;-77
2022/06/10 05:30:09;;;;;;;4.50;2.88;;;22.60;59.60;;;;;;5010762;28;20368;-78
2022/06/10 05:32:36;;;;;;;4.55;2.80;;;22.60;59.60;;;;;;5011806;28;20120;-78
2022/06/10 05:35:02;;;;;;;3.97;2.40;;;22.60;59.60;;;;;;5011791;28;20041;-77
2022/06/10 05:37:28;;;;;;;4.57;2.85;;;22.60;59.60;;;;;;5009775;28;20034;-78
2022/06/10 05:39:54;;;;;;;4.07;2.60;;;22.60;59.60;;;;;;5011835;28;20029;-78
2022/06/10 05:42:21;;;;;;;4.03;2.40;;;22.60;59.60;;;;;;5010667;28;20022;-77
2022/06/10 05:44:49;;;;;;;3.90;2.65;;;22.60;59.60;;;;;;5010418;28;20022;-77
2022/06/10 05:47:18;;;;;;;4.18;2.70;;;22.60;59.60;;;;;;5011240;28;20026;-78
2022/06/10 05:49:46;;;;;;;;;;;22.60;59.60;;;;;;5010727;28;20034;-77
2022/06/10 05:52:13;;;;;;;4.03;2.70;;;22.70;59.60;;;;;;5010362;28;19959;-77
2022/06/10 05:54:43;;;;;;;4.80;2.78;;;22.70;59.50;;;;;;5011414;28;20485;-76
2022/06/10 05:57:09;;;;;;;5.00;2.70;;;22.70;59.50;;;;;;5010215;28;20092;-77
2022/06/10 05:59:36;;;;;;;5.07;2.55;;;22.70;59.50;;;;;;5011252;28;20030;-77
2022/06/10 06:02:05;;;;;;;5.65;2.78;;;22.70;59.40;;;;;;5010039;28;20025;-77
2022/06/10 06:04:31;;;;;;;5.03;2.60;;;22.70;59.50;;;;;;5011676;28;20022;-78
2022/06/10 06:06:57;;;;;;;4.05;2.38;;;22.60;60.00;;;;;;5011218;28;20475;-78
2022/06/10 06:09:23;;;;;;;4.80;2.70;;;22.70;59.50;;;;;;5009921;28;20073;-78
2022/06/10 06:11:53;;;;;;;5.07;2.90;;;22.70;59.50;;;;;;5011689;28;20038;-78
2022/06/10 06:14:19;;;;;;;;;;;22.60;59.40;;;;;;5011738;28;20029;-77
2022/06/10 06:16:50;;;;;;;4.60;2.38;;;22.60;59.40;;;;;;5010122;28;19943;-78
2022/06/10 06:19:16;;;;;;;4.45;2.42;;;22.70;59.50;;;;;;5010519;28;20104;-78
2022/06/10 06:21:41;;;;;;;4.63;2.70;;;22.70;59.50;;;;;;5010010;28;20164;-78
2022/06/10 06:24:07;;;;;;;5.72;2.90;;;22.70;59.50;;;;;;5011409;28;20030;-77
2022/06/10 06:26:33;;;;;;;4.88;2.65;;;22.70;59.40;;;;;;5011209;28;20026;-77
2022/06/10 06:28:59;;;;;;;5.25;2.70;;;22.70;59.50;;;;;;5009529;28;20560;-77
2022/06/10 06:31:25;;;;;;;4.30;2.78;;;22.60;59.40;;;;;;5012085;28;20022;-78
2022/06/10 06:33:51;;;;;;;6.60;2.83;;;22.70;59.40;;;;;;5014900;28;20033;-77
2022/06/10 06:36:23;;;;;;;5.75;2.55;;;22.70;59.50;;;;;;5015233;28;20441;-77
2022/06/10 06:38:50;;;;;;;5.45;2.65;;;22.70;59.40;;;;;;5013581;28;20391;-77
2022/06/10 06:41:17;;;;;;;5.55;3.22;;;22.60;59.30;;;;;;5013879;28;20468;-78
2022/06/10 06:43:43;;;;;;;4.38;2.45;;;22.70;59.30;;;;;;5013776;28;20026;-78
2022/06/10 06:46:12;;;;;;;5.47;2.65;;;22.70;59.40;;;;;;5014836;28;20034;-78
2022/06/10 06:48:38;;;;;;;5.32;3.17;;;22.70;59.40;;;;;;5013145;28;20502;-78
2022/06/10 06:51:05;;;;;;;6.38;3.08;;;22.70;59.30;;;;;;5014702;28;20029;-77
2022/06/10 06:53:32;;;;;;;7.15;3.17;;;22.70;59.30;;;;;;5014568;28;20113;-77
2022/06/10 06:55:58;;;;;;;4.45;2.78;;;22.70;59.30;;;;;;5011417;23;20043;-71
2022/06/10 06:58:24;;;;;;;4.72;2.83;;;22.70;59.30;;;;;;4992607;28;20438;-72
2022/06/10 07:00:50;;;;;;;6.32;3.03;;;22.70;59.20;;;;;;4994455;28;20034;-71
2022/06/10 07:03:16;;;;;;;5.82;3.13;;;22.70;59.20;;;;;;4993690;28;20038;-72
2022/06/10 07:05:45;;;;;;;5.30;2.83;;;22.70;59.20;;;;;;5006951;28;20034;-72
2022/06/10 07:08:11;;;;;;;6.32;3.10;;;22.70;59.20;;;;;;5013640;28;20122;-72
2022/06/10 07:10:37;;;;;;;6.75;3.28;;;22.70;59.30;;;;;;5014378;28;20109;-72
2022/06/10 07:13:03;;;;;;;5.53;3.17;;;22.70;59.20;;;;;;5012888;28;20065;-72
2022/06/10 07:15:29;;;;;;;4.82;2.67;;;22.70;59.20;;;;;;5014257;28;20034;-72
2022/06/10 07:17:56;;;;;;;6.45;2.90;;;22.70;59.20;;;;;;4996425;28;20068;-71
2022/06/10 07:20:26;;;;;;;6.30;3.00;;;22.70;59.20;;;;;;5014238;28;20034;-72
2022/06/10 07:22:52;;;;;;;5.70;3.30;;;22.70;59.20;;;;;;5013016;28;20041;-71
2022/06/10 07:25:19;;;;;;;5.72;3.28;;;22.70;59.20;;;;;;5014199;28;20029;-72
2022/06/10 07:27:45;;;;;;;5.45;2.80;;;22.70;59.20;;;;;;5012346;28;20026;-71
2022/06/10 07:30:15;;;;;;;6.50;3.03;;;22.70;59.20;;;;;;5014259;28;20590;-72
2022/06/10 07:32:42;;;;;;;5.00;2.85;;;22.70;59.20;;;;;;5012659;28;20034;-72
2022/06/10 07:35:08;;;;;;;6.75;3.17;;;22.70;59.20;;;;;;4996349;28;20052;-72
2022/06/10 07:37:34;;;;;;;6.43;3.42;;;22.70;59.30;;;;;;5013545;28;20030;-72
2022/06/10 07:40:00;;;;;;;6.78;3.30;;;22.70;59.30;;;;;;5012959;28;20478;-72
2022/06/10 07:42:26;;;;;;;7.75;3.53;;;22.70;59.30;;;;;;5011902;28;20474;-72
2022/06/10 07:44:52;;;;;;;8.90;3.42;;;22.70;59.20;;;;;;5013911;28;20037;-71
2022/06/10 07:47:18;;;;;;;6.15;3.50;;;22.70;59.20;;;;;;5013370;28;20030;-71
2022/06/10 07:49:44;;;;;;;7.68;3.50;;;22.70;59.30;;;;;;5013876;28;20383;-72
2022/06/10 07:52:10;;;;;;;7.07;3.20;;;22.70;59.20;;;;;;5012572;28;20133;-71
2022/06/10 07:54:36;;;;;;;6.63;3.35;;;22.70;59.20;;;;;;5012413;28;20037;-70
2022/06/10 07:57:04;;;;;;;6.68;3.42;;;22.70;59.20;;;;;;5013229;28;20041;-72
2022/06/10 07:59:31;;;;;;;7.75;3.70;;;22.70;59.20;;;;;;5013523;28;20034;-72
2022/06/10 08:01:58;;;;;;;7.35;3.35;;;22.70;59.10;;;;;;5013424;28;20490;-71
2022/06/10 08:04:23;;;;;;;6.90;3.35;;;22.70;59.20;;;;;;5013334;28;20394;-71
2022/06/10 08:06:50;;;;;;;7.45;3.63;;;22.70;59.20;;;;;;5013296;28;20363;-72
2022/06/10 08:09:20;;;;;;;7.43;3.40;;;22.70;59.10;;;;;;5011642;28;20470;-72
2022/06/10 08:11:51;;;;;;;7.28;3.60;;;22.70;59.10;;;;;;5013257;28;20042;-71
2022/06/10 08:14:17;;;;;;;7.38;3.03;;;22.70;59.20;;;;;;5013010;28;20030;-71
2022/06/10 08:16:43;;;;;;;7.47;3.80;;;22.70;59.20;;;;;;5013113;28;20057;-71
2022/06/10 08:19:09;;;;;;;5.50;3.30;;;22.70;59.10;;;;;;5011549;28;20053;-71
2022/06/10 08:24:20;;;;;;;6.15;3.22;;;22.70;59.10;;;;;;5012953;28;20096;-71
2022/06/10 08:26:47;;;;;;;5.60;3.15;;;22.70;59.20;;;;;;5011769;28;20030;-71
2022/06/10 08:29:13;;;;;;;7.53;3.33;;;22.70;59.70;;;;;;5012539;28;20033;-72
2022/06/10 08:31:39;;;;;;;6.00;3.00;;;22.70;59.10;;;;;;5012960;28;20056;-71
2022/06/10 08:34:05;;;;;;;6.70;3.40;;;22.70;59.10;;;;;;5012731;28;20021;-72
2022/06/10 08:36:33;;;;;;;5.43;3.20;;;22.70;59.10;;;;;;5012540;28;20483;-72
2022/06/10 08:39:00;;;;;;;6.80;3.20;;;22.70;59.00;;;;;;5010967;28;20018;-72
2022/06/10 08:41:32;;;;;;;6.13;3.20;;;22.70;59.60;;;;;;5011858;28;20029;-72
2022/06/10 08:44:35;;;;;;;7.70;3.55;;;22.70;59.10;;;;;;5011368;28;20026;-72
2022/06/10 08:47:31;;;;;;;5.85;2.90;;;22.70;59.10;;;;;;4990736;28;20038;-71
2022/06/10 08:50:07;;;;;;;4.78;2.78;;;22.70;59.00;;;;;;5012725;28;20080;-72
2022/06/10 08:52:51;;;;;;;7.35;3.10;;;22.70;59.10;;;;;;5012125;28;20129;-71
2022/06/10 08:55:36;;;;;;;9.55;3.70;;;22.70;59.20;;;;;;5010672;28;20042;-72
2022/06/10 08:58:09;;;;;;;6.80;3.13;;;22.70;59.10;;;;;;5010741;28;20052;-71
2022/06/10 09:00:40;;;;;;;7.82;3.00;;;22.70;59.00;;;;;;5012511;28;20030;-72
2022/06/10 09:03:19;;;;;;;6.97;3.08;;;22.80;59.10;;;;;;5012236;28;20026;-72
2022/06/10 09:05:55;;;;;;;7.00;3.05;;;22.70;59.00;;;;;;5012435;28;20045;-72
2022/06/10 09:08:48;;;;;;;7.22;3.55;;;22.70;59.00;;;;;;4994553;28;20029;-71
2022/06/10 09:11:44;;;;;;;8.15;3.42;;;22.70;59.00;;;;;;5011351;28;20087;-72
2022/06/10 09:14:17;;;;;;;17.50;3.97;;;22.80;59.40;;;;;;5005310;28;20648;-71
2022/06/10 09:17:12;;;;;;;8.07;3.10;;;22.80;58.60;;;;;;5009365;28;20041;-71
2022/06/10 09:20:12;;;;;;;7.90;3.08;;;22.80;57.90;;;;;;5011783;28;20026;-70
2022/06/10 09:22:44;;;;;;;;;;;22.80;58.20;;;;;;5011116;28;20048;-71
2022/06/10 09:25:33;;;;;;;10.75;2.83;;;22.80;57.50;;;;;;5011683;28;19913;-70
2022/06/10 09:28:00;;;;;;;;;;;22.80;57.40;;;;;;5011030;28;20034;-71
2022/06/10 09:30:46;;;;;;;9.32;2.80;;;22.80;57.90;;;;;;5010536;28;20321;-70
2022/06/10 09:33:57;;;;;;;10.32;3.22;;;22.80;58.30;;;;;;5010053;28;20457;-71
2022/06/10 09:36:35;;;;;;;14.65;3.15;;;22.80;58.30;;;;;;4979187;28;20050;-68
2022/06/10 09:42:10;;;;;;;15.20;3.33;;;22.80;56.40;;;;;;5010251;28;20671;-70
2022/06/10 09:45:20;;;;;;;12.20;3.17;;;22.80;57.30;;;;;;4993697;28;20034;-71
2022/06/10 09:47:55;;;;;;;;;;;22.80;57.10;;;;;;5011627;28;20049;-69
2022/06/10 09:51:00;;;;;;;16.83;3.28;;;22.80;55.00;;;;;;5011953;28;19963;-71
2022/06/10 09:53:41;;;;;;;16.55;3.65;;;22.90;55.50;;;;;;5011402;28;20022;-69
2022/06/10 09:56:42;;;;;;;14.80;4.32;;;22.80;56.40;;;;;;5010306;28;20037;-70
2022/06/10 09:59:25;;;;;;;18.05;5.47;;;22.80;56.50;;;;;;5004786;28;20064;-70
2022/06/10 10:02:14;;;;;;;10.25;3.13;;;22.80;55.70;;;;;;5006900;28;20026;-70
2022/06/10 10:04:55;;;;;;;12.73;4.45;;;22.90;56.70;;;;;;5007171;28;20109;-69
2022/06/10 10:07:33;;;;;;;14.90;3.42;;;22.80;56.50;;;;;;5006631;28;20113;-69
2022/06/10 10:10:22;;;;;;;15.32;4.32;;;22.80;56.10;;;;;;5007991;28;20107;-70
2022/06/10 10:12:53;;;;;;;17.52;4.80;;;22.80;52.70;;;;;;5007516;28;20041;-69
2022/06/10 10:15:33;;;;;;;13.70;4.38;;;22.80;53.50;;;;;;5007520;28;20044;-70
2022/06/10 10:18:29;;;;;;;16.88;3.95;;;22.80;55.20;;;;;;5008697;28;20048;-70
2022/06/10 10:21:20;;;;;;;14.05;3.70;;;22.80;56.40;;;;;;5008801;28;20045;-70
2022/06/10 10:23:52;;;;;;;11.05;3.22;;;22.80;53.70;;;;;;5008962;28;20060;-70
2022/06/10 10:26:27;;;;;;;12.80;3.10;;;22.80;53.00;;;;;;4991408;28;20068;-70
2022/06/10 10:29:17;;;;;;;10.73;3.58;;;22.80;54.70;;;;;;5008437;28;20038;-70
2022/06/10 10:31:54;;;;;;;10.30;2.85;;;22.80;54.80;;;;;;5005335;28;20065;-70
2022/06/10 10:34:23;;;;;;;10.25;3.17;;;22.80;53.10;;;;;;5007982;28;20713;-70
2022/06/10 10:36:58;;;;;;;8.75;2.85;;;22.80;53.30;;;;;;5009520;28;20030;-70
2022/06/10 10:39:30;;;;;;;11.13;3.00;;;22.80;54.50;;;;;;4990580;28;20379;-69
2022/06/10 10:42:15;;;;;;;14.98;3.10;;;22.80;52.80;;;;;;5009544;28;20508;-70
2022/06/10 10:45:03;;;;;;;9.32;2.47;;;22.90;52.40;;;;;;5001657;28;20034;-71
2022/06/10 10:47:29;;;;;;;9.13;2.22;;;22.80;50.90;;;;;;5007407;28;20502;-69
2022/06/10 10:50:15;;;;;;;9.00;2.00;;;22.50;47.40;;;;;;5008900;28;20525;-69
2022/06/10 10:52:45;;;;;;;13.18;2.20;;;22.30;45.80;;;;;;5009109;28;20022;-69
2022/06/10 10:55:13;;;;;;;8.07;2.10;;;22.20;45.60;;;;;;5006423;28;20034;-70
2022/06/10 10:57:44;;;;;;;12.25;2.10;;;22.00;46.20;;;;;;5006489;28;20038;-80
2022/06/10 11:00:10;;;;;;;15.05;6.47;;;22.00;45.50;;;;;;5008932;28;20022;-77
2022/06/10 11:02:58;;;;;;;14.50;6.50;;;22.00;46.20;;;;;;5008663;28;20036;-77
2022/06/10 11:05:37;;;;;;;6.80;2.08;;;22.10;46.30;;;;;;5008788;28;20022;-77
2022/06/10 11:08:05;;;;;;;13.00;2.13;;;21.90;45.40;;;;;;5008682;28;20510;-78
2022/06/10 11:10:34;;;;;;;7.25;2.47;;;21.90;46.50;;;;;;5009412;28;20034;-79
2022/06/10 11:13:07;;;;;;;7.18;2.28;;;22.00;46.30;;;;;;5008031;28;20034;-78
2022/06/10 11:15:34;;;;;;;10.13;2.03;;;21.90;45.60;;;;;;5008208;28;20550;-78
2022/06/10 11:18:01;;;;;;;7.85;1.80;;;22.00;46.20;;;;;;5011401;28;20025;-74
2022/06/10 11:20:33;;;;;;;9.25;2.00;;;22.00;46.20;;;;;;5011147;28;20041;-72
2022/06/10 11:23:17;;;;;;;10.32;1.90;;;22.20;46.70;;;;;;5010932;28;20029;-72
2022/06/10 11:25:45;;;;;;;9.65;2.03;;;22.30;47.30;;;;;;5012620;28;20037;-72
2022/06/10 11:28:21;;;;;;;10.75;1.85;;;22.40;47.60;;;;;;5010356;28;20046;-72
2022/06/10 11:30:49;;;;;;;13.63;2.65;;;22.40;48.00;;;;;;5011882;28;20055;-69
2022/06/10 11:33:37;;;;;;;7.68;2.28;;;22.40;48.30;;;;;;5010688;28;20140;-69
2022/06/10 11:36:08;;;;;;;13.13;2.75;;;22.50;48.20;;;;;;5012142;28;20030;-69
2022/06/10 11:38:37;;;;;;;11.30;2.20;;;22.50;48.60;;;;;;4994011;28;20065;-69
2022/06/10 11:41:21;;;;;;;8.88;2.30;;;22.60;49.00;;;;;;5011050;28;20037;-70
2022/06/10 11:44:11;;;;;;;15.15;2.70;;;22.70;49.60;;;;;;5008657;28;20038;-69
2022/06/10 11:46:54;;;;;;;13.48;2.75;;;22.80;50.40;;;;;;5012175;28;20336;-70
2022/06/10 11:49:27;;;;;;;14.32;2.80;;;22.80;50.30;;;;;;5010084;28;20025;-70
2022/06/10 11:52:14;;;;;;;12.05;3.08;;;22.70;50.20;;;;;;5012128;28;20037;-69
2022/06/10 11:54:46;;;;;;;13.05;2.30;;;22.70;50.60;;;;;;5007469;28;20113;-70
2022/06/10 12:00:51;;;;;;;9.00;2.20;;;22.70;50.80;;;;;;5005458;28;20036;-70
2022/06/10 12:03:42;;;;;;;10.18;2.15;;;22.70;51.00;;;;;;5007630;28;20026;-70
2022/06/10 12:06:19;;;;;;;10.27;2.72;;;22.70;51.00;;;;;;5010120;28;20109;-71
2022/06/10 12:08:57;;;;;;;11.73;2.40;;;22.70;51.10;;;;;;5010945;28;20034;-70
2022/06/10 12:11:55;;;;;;;10.07;2.70;;;22.70;51.20;;;;;;5011542;28;20038;-71
2022/06/10 12:14:43;;;;;;;7.28;2.10;;;22.70;51.30;;;;;;5007458;28;20037;-70
2022/06/10 12:17:14;;;;;;;9.05;2.20;;;22.70;51.50;;;;;;5004846;28;20415;-71
2022/06/10 12:19:48;;;;;;;8.88;2.38;;;22.70;51.50;;;;;;5009069;28;20124;-71
2022/06/10 12:22:14;;;;;;;9.73;2.80;;;22.70;51.60;;;;;;5010017;28;20192;-71
2022/06/10 12:24:42;;;;;;;5.78;1.90;;;22.70;51.70;;;;;;5011327;28;20394;-71
2022/06/10 12:27:15;;;;;;;8.27;2.22;;;22.60;51.70;;;;;;5009255;28;20120;-71
2022/06/10 12:29:51;;;;;;;13.45;2.15;;;22.70;51.90;;;;;;5010170;28;20085;-70
2022/06/10 12:32:16;;;;;;;9.77;1.98;;;22.70;52.00;;;;;;5010723;28;20049;-71
2022/06/10 12:34:45;;;;;;;12.32;2.72;;;22.70;52.20;;;;;;5005399;28;20042;-71
2022/06/10 12:37:27;;;;;;;9.93;2.17;;;22.60;52.20;;;;;;5011114;28;20042;-71
2022/06/10 12:39:59;;;;;;;8.35;2.20;;;22.60;52.20;;;;;;5011519;28;20040;-71
2022/06/10 12:42:35;;;;;;;8.50;2.10;;;22.60;52.30;;;;;;5012666;28;20102;-71
2022/06/10 12:45:03;;;;;;;9.48;2.45;;;22.60;52.40;;;;;;5013210;28;20026;-70
2022/06/10 12:47:34;;;;;;;5.63;2.03;;;22.60;52.50;;;;;;5012415;28;20100;-70
2022/06/10 12:50:02;;;;;;;6.80;2.05;;;22.60;52.60;;;;;;5012542;28;20026;-71
2022/06/10 12:52:57;;;;;;;6.97;2.15;;;22.60;52.70;;;;;;5012574;28;20093;-71
2022/06/10 12:55:47;;;;;;;6.90;1.77;;;22.60;52.70;;;;;;5019658;23;20039;-73
2022/06/10 12:58:49;;;;;;;6.20;1.90;;;22.60;52.70;;;;;;5003262;28;20050;-73
2022/06/10 13:01:18;;;;;;;6.72;1.65;;;22.70;52.80;;;;;;4990013;28;20562;-73
2022/06/10 13:03:46;;;;;;;7.30;2.15;;;22.70;52.90;;;;;;5012381;28;20116;-74
2022/06/10 13:06:49;;;;;;;9.90;1.95;;;22.70;53.10;;;;;;5003364;28;20034;-74
2022/06/10 13:09:22;;;;;;;6.38;2.10;;;22.70;53.30;;;;;;5010717;28;20054;-73
2022/06/10 13:12:06;;;;;;;12.25;2.28;;;22.70;53.30;;;;;;5012295;28;20038;-75
2022/06/10 13:14:34;;;;;;;7.70;2.22;;;22.80;53.90;;;;;;5011983;28;20474;-75
2022/06/10 13:17:17;;;;;;;8.68;2.65;;;22.80;54.90;;;;;;5012015;28;20034;-74
2022/06/10 13:19:56;;;;;;;7.32;2.53;;;22.80;56.20;;;;;;5010677;28;20029;-75
2022/06/10 13:22:22;;;;;;;11.63;2.75;;;22.90;56.00;;;;;;5012304;28;20477;-75
2022/06/10 13:24:54;;;;;;;94.47;61.55;;;22.90;56.10;;;;;;5011624;28;20104;-70
2022/06/10 13:27:26;;;;;;;59.67;38.83;;;22.90;55.90;;;;;;5009964;28;20486;-70
2022/06/10 13:29:58;;;;;;;31.73;18.00;;;22.90;56.50;;;;;;5011668;28;20141;-70
2022/06/10 13:32:24;;;;;;;42.08;21.08;;;22.90;55.60;;;;;;5011841;28;20034;-70
2022/06/10 13:35:04;;;;;;;27.20;14.20;;;22.90;58.20;;;;;;5011564;28;20032;-70
2022/06/10 13:37:39;;;;;;;25.15;14.13;;;22.90;56.00;;;;;;5013188;28;20040;-70